createdAt,value
2022-08-05T00:00:19.192Z,57.53
2022-08-05T00:01:22.845Z,61.39
2022-08-05T00:02:19.247Z,58.74
2022-08-05T00:03:18.188Z,61.57
2022-08-05T00:04:18.126Z,61.09
2022-08-05T00:06:02.723Z,59.05
2022-08-05T00:06:29.384Z,57.23
2022-08-05T00:07:26.935Z,58.73
2022-08-05T00:08:32.498Z,57.25
2022-08-05T00:09:19.544Z,57.74
2022-08-05T00:10:18.070Z,61.02
2022-08-05T00:11:20.687Z,60.34
2022-08-05T00:12:19.090Z,60.84
2022-08-05T00:13:18.659Z,61.29
2022-08-05T00:14:17.977Z,59.62
2022-08-05T00:15:56.074Z,55.44
2022-08-05T00:16:19.003Z,58.61
2022-08-05T00:17:20.217Z,60.06
2022-08-05T00:18:21.823Z,61.20
2022-08-05T00:19:17.882Z,57.26
2022-08-05T00:20:20.304Z,58.98
2022-08-05T00:21:17.880Z,57.86
2022-08-05T00:22:17.972Z,57.64
2022-08-05T00:23:17.832Z,58.31
2022-08-05T00:24:24.248Z,60.08
2022-08-05T00:25:18.804Z,57.39
2022-08-05T00:26:17.805Z,55.70
2022-08-05T00:27:17.764Z,60.52
2022-08-05T00:28:21.094Z,58.93
2022-08-05T00:29:18.725Z,58.30
2022-08-05T00:30:17.718Z,61.35
2022-08-05T00:31:54.183Z,60.74
2022-08-05T00:32:18.704Z,56.10
2022-08-05T00:34:55.990Z,55.71
2022-08-05T00:34:56.057Z,63.39
2022-08-05T00:35:20.226Z,56.79
2022-08-05T00:37:11.022Z,61.45
2022-08-05T00:37:18.803Z,57.83
2022-08-05T00:38:17.579Z,58.06
2022-08-05T00:39:18.609Z,63.21
2022-08-05T00:40:17.624Z,56.69
2022-08-05T00:41:18.552Z,62.18
2022-08-05T00:42:31.515Z,60.56
2022-08-05T00:43:18.482Z,58.85
2022-08-05T00:44:17.468Z,58.62
2022-08-05T00:45:17.477Z,58.36
2022-08-05T00:46:18.444Z,60.92
2022-08-05T00:47:18.453Z,60.20
2022-08-05T00:48:17.406Z,60.88
2022-08-05T00:49:17.427Z,56.35
2022-08-05T00:50:17.387Z,56.17
2022-08-05T00:51:51.954Z,58.25
2022-08-05T00:52:18.377Z,58.83
2022-08-05T00:54:00.302Z,58.61
2022-08-05T00:54:18.439Z,60.41
2022-08-05T00:55:17.326Z,59.61
2022-08-05T00:56:17.486Z,59.27
2022-08-05T00:57:21.276Z,60.35
2022-08-05T00:58:17.258Z,62.04
2022-08-05T00:59:17.312Z,60.24
2022-08-05T01:00:17.259Z,64.22
2022-08-05T01:01:41.973Z,62.13
2022-08-05T01:02:18.238Z,64.94
2022-08-05T01:03:22.567Z,60.99
2022-08-05T01:04:20.233Z,56.54
2022-08-05T01:05:18.167Z,64.22
2022-08-05T01:06:17.111Z,61.91
2022-08-05T01:07:17.995Z,57.75
2022-08-05T01:08:30.624Z,59.79
2022-08-05T01:09:20.138Z,62.35
2022-08-05T01:10:17.084Z,57.68
2022-08-05T01:11:21.821Z,59.88
2022-08-05T01:12:19.105Z,61.08
2022-08-05T01:13:22.249Z,58.64
2022-08-05T01:14:18.015Z,59.71
2022-08-05T01:15:35.092Z,57.78
2022-08-05T01:16:20.934Z,59.71
2022-08-05T01:17:17.981Z,59.73
2022-08-05T01:18:16.942Z,59.82
2022-08-05T01:19:16.921Z,60.40
2022-08-05T01:20:16.902Z,60.32
2022-08-05T01:21:22.929Z,59.93
2022-08-05T01:22:18.872Z,60.99
2022-08-05T01:23:23.429Z,58.15
2022-08-05T01:24:17.836Z,60.13
2022-08-05T01:25:16.826Z,60.63
2022-08-05T01:26:16.859Z,54.60
2022-08-05T01:27:19.289Z,58.30
2022-08-05T01:28:16.791Z,59.94
2022-08-05T01:29:16.761Z,59.51
2022-08-05T01:30:18.988Z,57.57
2022-08-05T01:31:17.773Z,59.30
2022-08-05T01:32:18.711Z,58.86
2022-08-05T01:33:19.740Z,62.99
2022-08-05T01:34:17.761Z,57.92
2022-08-05T01:35:51.030Z,59.84
2022-08-05T01:36:17.682Z,55.27
2022-08-05T01:37:24.483Z,57.86
2022-08-05T01:38:27.435Z,57.87
2022-08-05T01:39:45.664Z,58.85
2022-08-05T01:40:18.030Z,60.66
2022-08-05T01:41:16.597Z,60.07
2022-08-05T01:42:16.540Z,61.30
2022-08-05T01:43:22.325Z,60.22
2022-08-05T01:44:17.532Z,57.43
2022-08-05T01:45:16.620Z,59.75
2022-08-05T01:46:42.488Z,60.68
2022-08-05T01:47:17.474Z,60.66
2022-08-05T01:48:16.454Z,58.90
2022-08-05T01:49:24.202Z,58.53
2022-08-05T01:50:17.458Z,56.62
2022-08-05T01:51:16.451Z,60.31
2022-08-05T01:52:17.694Z,59.41
2022-08-05T01:53:16.446Z,61.60
2022-08-05T01:54:18.055Z,59.47
2022-08-05T01:55:16.343Z,58.37
2022-08-05T01:58:10.383Z,61.33
2022-08-05T01:58:11.158Z,62.52
2022-08-05T01:58:17.309Z,61.80
2022-08-05T01:59:16.269Z,61.00
2022-08-05T02:00:16.279Z,61.15
2022-08-05T02:01:16.304Z,60.22
2022-08-05T02:02:17.284Z,59.56
2022-08-05T02:03:16.378Z,60.43
2022-08-05T02:04:17.189Z,59.23
2022-08-05T02:05:16.235Z,60.32
2022-08-05T02:06:37.082Z,58.54
2022-08-05T02:07:21.883Z,58.24
2022-08-05T02:08:31.240Z,60.55
2022-08-05T02:09:17.114Z,60.62
2022-08-05T02:10:17.313Z,64.23
2022-08-05T02:11:16.057Z,60.44
2022-08-05T02:12:17.090Z,58.60
2022-08-05T02:13:16.809Z,61.70
2022-08-05T02:14:17.034Z,61.97
2022-08-05T02:15:19.567Z,60.13
2022-08-05T02:16:16.335Z,60.49
2022-08-05T02:17:17.020Z,61.74
2022-08-05T02:18:32.054Z,62.60
2022-08-05T02:19:16.944Z,59.73
2022-08-05T02:20:15.922Z,62.75
2022-08-05T02:21:15.941Z,64.74
2022-08-05T02:22:25.633Z,65.78
2022-08-05T02:23:16.885Z,67.37
2022-08-05T02:24:17.898Z,64.11
2022-08-05T02:25:15.862Z,65.52
2022-08-05T02:26:17.078Z,66.62
2022-08-05T02:27:15.845Z,69.79
2022-08-05T02:28:15.789Z,68.33
2022-08-05T02:29:21.694Z,66.85
2022-08-05T02:30:16.751Z,68.58
2022-08-05T02:31:15.742Z,67.00
2022-08-05T02:32:23.667Z,66.06
2022-08-05T02:33:16.716Z,66.45
2022-08-05T02:34:16.742Z,70.30
2022-08-05T02:35:18.954Z,67.48
2022-08-05T02:36:16.664Z,69.09
2022-08-05T02:37:15.801Z,69.31
2022-08-05T02:38:19.518Z,69.39
2022-08-05T02:39:15.638Z,67.59
2022-08-05T02:40:16.629Z,70.95
2022-08-05T02:41:17.878Z,68.24
2022-08-05T02:42:25.694Z,65.00
2022-08-05T02:43:16.547Z,70.44
2022-08-05T02:44:15.574Z,71.08
2022-08-05T02:45:15.543Z,69.46
2022-08-05T02:46:16.330Z,70.66
2022-08-05T02:47:15.594Z,67.91
2022-08-05T02:48:15.460Z,67.39
2022-08-05T02:49:15.488Z,68.83
2022-08-05T02:50:15.438Z,69.82
2022-08-05T02:51:15.475Z,67.79
2022-08-05T02:52:30.262Z,68.59
2022-08-05T02:53:19.362Z,67.06
2022-08-05T02:54:36.039Z,67.77
2022-08-05T02:55:17.549Z,69.75
2022-08-05T02:56:18.900Z,67.98
2022-08-05T02:58:09.162Z,67.95
2022-08-05T02:58:16.290Z,66.04
2022-08-05T02:59:15.271Z,66.76
2022-08-05T03:00:15.270Z,66.15
2022-08-05T03:01:15.332Z,66.46
2022-08-05T03:02:15.240Z,67.42
2022-08-05T03:03:15.196Z,64.97
2022-08-05T03:04:16.184Z,66.61
2022-08-05T03:05:15.208Z,65.71
2022-08-05T03:06:56.561Z,67.53
2022-08-05T03:07:40.627Z,65.43
2022-08-05T03:08:16.538Z,66.00
2022-08-05T03:09:15.937Z,64.59
2022-08-05T03:10:16.087Z,66.19
2022-08-05T03:11:53.837Z,63.47
2022-08-05T03:12:16.075Z,66.62
2022-08-05T03:13:16.732Z,67.14
2022-08-05T03:14:15.027Z,66.42
2022-08-05T03:15:15.032Z,66.93
2022-08-05T03:16:15.810Z,69.36
2022-08-05T03:17:14.993Z,66.29
2022-08-05T03:18:14.944Z,66.92
2022-08-05T03:19:20.262Z,67.44
2022-08-05T03:20:15.920Z,64.00
2022-08-05T03:21:15.887Z,66.89
2022-08-05T03:22:16.705Z,69.43
2022-08-05T03:23:14.860Z,67.30
2022-08-05T03:24:14.834Z,66.18
2022-08-05T03:26:04.027Z,66.77
2022-08-05T03:26:32.061Z,68.68
2022-08-05T03:27:16.029Z,65.37
2022-08-05T03:28:14.759Z,66.79
2022-08-05T03:29:17.422Z,66.24
2022-08-05T03:30:14.737Z,65.19
2022-08-05T03:31:25.883Z,65.24
2022-08-05T03:32:15.735Z,63.86
2022-08-05T03:33:14.689Z,65.33
2022-08-05T03:34:14.665Z,64.87
2022-08-05T03:35:14.689Z,63.88
2022-08-05T03:36:14.651Z,65.16
2022-08-05T03:37:14.654Z,64.80
2022-08-05T03:38:14.716Z,65.94
2022-08-05T03:39:26.565Z,65.26
2022-08-05T03:40:31.212Z,67.36
2022-08-05T03:41:15.556Z,66.63
2022-08-05T03:42:14.555Z,65.22
2022-08-05T03:43:58.376Z,66.29
2022-08-05T03:44:19.942Z,66.53
2022-08-05T03:45:21.957Z,66.68
2022-08-05T03:46:15.476Z,65.69
2022-08-05T03:47:14.511Z,64.81
2022-08-05T03:48:14.436Z,66.58
2022-08-05T03:49:15.432Z,64.93
2022-08-05T03:50:14.406Z,63.56
2022-08-05T03:52:38.008Z,65.01
2022-08-05T03:52:39.423Z,63.51
2022-08-05T03:55:00.134Z,67.12
2022-08-05T03:55:50.745Z,65.26
2022-08-05T03:56:01.855Z,64.03
2022-08-05T03:56:18.009Z,61.95
2022-08-05T03:57:16.515Z,63.76
2022-08-05T03:58:14.296Z,67.52
2022-08-05T03:59:14.253Z,61.36
2022-08-05T04:00:15.566Z,66.99
2022-08-05T04:01:14.301Z,64.44
2022-08-05T04:02:14.989Z,60.92
2022-08-05T04:03:28.183Z,65.90
2022-08-05T04:04:15.184Z,63.15
2022-08-05T04:05:15.186Z,63.69
2022-08-05T04:06:14.142Z,65.79
2022-08-05T04:07:14.120Z,65.65
2022-08-05T04:08:14.931Z,62.24
2022-08-05T04:09:20.101Z,64.25
2022-08-05T04:10:15.069Z,64.62
2022-08-05T04:11:14.050Z,63.26
2022-08-05T04:12:23.523Z,61.67
2022-08-05T04:13:15.046Z,66.27
2022-08-05T04:14:18.057Z,64.44
2022-08-05T04:15:15.486Z,63.86
2022-08-05T04:16:14.367Z,62.95
2022-08-05T04:17:13.986Z,64.78
2022-08-05T04:18:20.598Z,63.64
2022-08-05T04:19:15.910Z,63.19
2022-08-05T04:20:14.164Z,63.40
2022-08-05T04:21:13.886Z,65.77
2022-08-05T04:22:14.963Z,64.57
2022-08-05T04:23:16.220Z,64.10
2022-08-05T04:24:18.819Z,65.43
2022-08-05T04:25:14.807Z,63.06
2022-08-05T04:26:13.872Z,61.70
2022-08-05T04:27:13.801Z,62.41
2022-08-05T04:28:13.836Z,62.74
2022-08-05T04:29:14.376Z,62.88
2022-08-05T04:30:13.729Z,61.90
2022-08-05T04:31:13.725Z,63.18
2022-08-05T04:32:13.818Z,63.52
2022-08-05T04:33:14.712Z,63.07
2022-08-05T04:34:31.144Z,65.78
2022-08-05T04:35:19.684Z,64.89
2022-08-05T04:36:45.871Z,64.61
2022-08-05T04:37:14.681Z,66.01
2022-08-05T04:38:15.461Z,64.93
2022-08-05T04:39:13.675Z,64.38
2022-08-05T04:40:13.557Z,64.49
2022-08-05T04:41:14.556Z,65.04
2022-08-05T04:42:13.545Z,65.17
2022-08-05T04:43:16.460Z,63.44
2022-08-05T04:44:13.521Z,66.39
2022-08-05T04:45:14.121Z,65.69
2022-08-05T04:46:14.466Z,64.51
2022-08-05T04:47:20.023Z,63.40
2022-08-05T04:48:16.425Z,61.79
2022-08-05T04:49:14.923Z,65.06
2022-08-05T04:50:13.387Z,64.11
2022-08-05T04:51:14.454Z,63.71
2022-08-05T04:52:13.441Z,63.62
2022-08-05T04:53:13.422Z,62.54
2022-08-05T04:54:13.353Z,64.32
2022-08-05T04:55:14.497Z,65.43
2022-08-05T04:56:33.657Z,63.59
2022-08-05T04:57:14.330Z,61.41
2022-08-05T04:58:13.269Z,64.79
2022-08-05T04:59:26.636Z,62.54
2022-08-05T05:00:14.224Z,63.19
2022-08-05T05:01:13.279Z,61.74
2022-08-05T05:02:41.518Z,61.87
2022-08-05T05:03:14.227Z,61.28
2022-08-05T05:04:14.158Z,62.87
2022-08-05T05:05:16.896Z,64.61
2022-08-05T05:06:40.090Z,61.98
2022-08-05T05:07:15.884Z,63.32
2022-08-05T05:08:14.429Z,63.09
2022-08-05T05:09:17.730Z,61.43
2022-08-05T05:10:13.083Z,62.21
2022-08-05T05:11:15.248Z,59.54
2022-08-05T05:12:13.113Z,61.99
2022-08-05T05:13:13.023Z,62.91
2022-08-05T05:14:15.968Z,59.31
2022-08-05T05:15:12.960Z,63.73
2022-08-05T05:16:13.049Z,63.69
2022-08-05T05:17:12.985Z,63.74
2022-08-05T05:18:12.911Z,63.26
2022-08-05T05:19:23.673Z,62.53
2022-08-05T05:20:14.867Z,62.11
2022-08-05T05:21:12.848Z,61.02
2022-08-05T05:22:22.683Z,61.12
2022-08-05T05:23:19.714Z,63.80
2022-08-05T05:24:13.815Z,61.46
2022-08-05T05:25:16.935Z,63.06
2022-08-05T05:26:12.773Z,64.06
2022-08-05T05:27:12.782Z,65.05
2022-08-05T05:28:12.738Z,61.57
2022-08-05T05:29:14.919Z,62.96
2022-08-05T05:30:15.718Z,63.04
2022-08-05T05:31:13.722Z,59.64
2022-08-05T05:32:12.822Z,64.97
2022-08-05T05:33:17.225Z,61.60
2022-08-05T05:34:12.683Z,62.85
2022-08-05T05:35:12.660Z,65.03
2022-08-05T05:36:13.613Z,64.29
2022-08-05T05:37:12.622Z,63.40
2022-08-05T05:38:13.390Z,61.83
2022-08-05T05:39:12.578Z,63.64
2022-08-05T05:40:12.545Z,61.32
2022-08-05T05:41:12.552Z,62.93
2022-08-05T05:42:12.520Z,62.83
2022-08-05T05:43:12.524Z,60.84
2022-08-05T05:44:46.015Z,62.87
2022-08-05T05:45:14.235Z,62.77
2022-08-05T05:46:17.552Z,62.29
2022-08-05T05:47:22.204Z,62.88
2022-08-05T05:48:16.027Z,63.80
2022-08-05T05:49:13.529Z,63.46
2022-08-05T05:50:16.265Z,64.06
2022-08-05T05:51:15.517Z,61.72
2022-08-05T05:52:13.369Z,63.88
2022-08-05T05:53:22.628Z,65.43
2022-08-05T05:54:13.348Z,65.41
2022-08-05T05:55:13.306Z,65.23
2022-08-05T05:56:12.329Z,65.23
2022-08-05T05:57:13.896Z,65.63
2022-08-05T05:58:13.327Z,65.31
2022-08-05T05:59:12.240Z,66.60
2022-08-05T06:00:12.241Z,67.29
2022-08-05T06:01:15.219Z,68.03
2022-08-05T06:02:12.184Z,69.07
2022-08-05T06:03:39.855Z,67.25
2022-08-05T06:04:14.365Z,66.30
2022-08-05T06:05:16.758Z,62.96
2022-08-05T06:06:13.129Z,66.55
2022-08-05T06:07:12.155Z,64.84
2022-08-05T06:08:12.146Z,65.52
2022-08-05T06:09:17.346Z,65.12
2022-08-05T06:10:13.093Z,64.36
2022-08-05T06:11:12.053Z,65.30
2022-08-05T06:12:12.228Z,66.43
2022-08-05T06:13:12.055Z,66.22
2022-08-05T06:14:11.999Z,65.30
2022-08-05T06:15:16.556Z,65.24
2022-08-05T06:16:29.970Z,67.91
2022-08-05T06:17:52.351Z,68.38
2022-08-05T06:18:12.949Z,65.88
2022-08-05T06:19:12.557Z,65.06
2022-08-05T06:20:18.818Z,67.11
2022-08-05T06:21:16.659Z,65.48
2022-08-05T06:22:12.896Z,67.29
2022-08-05T06:23:12.865Z,65.44
2022-08-05T06:24:12.783Z,66.70
2022-08-05T06:25:59.785Z,64.95
2022-08-05T06:26:20.817Z,65.63
2022-08-05T06:28:09.497Z,64.56
2022-08-05T06:28:21.080Z,64.25
2022-08-05T06:29:26.475Z,65.49
2022-08-05T06:30:17.907Z,66.30
2022-08-05T06:31:17.916Z,65.10
2022-08-05T06:32:24.902Z,66.04
2022-08-05T06:33:12.691Z,66.08
2022-08-05T06:34:12.697Z,65.01
2022-08-05T06:35:15.499Z,66.76
2022-08-05T06:36:12.638Z,66.78
2022-08-05T06:37:12.348Z,65.52
2022-08-05T06:38:12.035Z,67.89
2022-08-05T06:39:11.637Z,67.65
2022-08-05T06:40:11.759Z,66.64
2022-08-05T06:41:11.714Z,64.95
2022-08-05T06:42:11.617Z,67.76
2022-08-05T06:43:51.458Z,66.55
2022-08-05T06:44:12.518Z,66.24
2022-08-05T06:45:21.336Z,65.87
2022-08-05T06:46:12.478Z,67.59
2022-08-05T06:47:30.016Z,67.27
2022-08-05T06:48:50.333Z,65.93
2022-08-05T06:49:12.434Z,65.56
2022-08-05T06:50:11.425Z,65.00
2022-08-05T06:51:25.286Z,65.64
2022-08-05T06:52:38.282Z,67.55
2022-08-05T06:53:27.918Z,68.16
2022-08-05T06:54:19.075Z,67.10
2022-08-05T06:55:12.411Z,67.18
2022-08-05T06:56:16.270Z,65.67
2022-08-05T06:57:56.598Z,66.37
2022-08-05T06:58:19.999Z,65.87
2022-08-05T06:59:12.241Z,66.46
2022-08-05T07:00:11.236Z,67.30
2022-08-05T07:01:11.280Z,65.26
2022-08-05T07:02:11.220Z,67.09
2022-08-05T07:03:11.224Z,65.03
2022-08-05T07:04:11.192Z,65.36
2022-08-05T07:05:14.156Z,66.56
2022-08-05T07:06:14.403Z,66.09
2022-08-05T07:07:11.144Z,66.91
2022-08-05T07:08:11.274Z,64.42
2022-08-05T07:09:11.102Z,67.86
2022-08-05T07:10:11.088Z,67.16
2022-08-05T07:11:15.323Z,65.62
2022-08-05T07:12:11.045Z,66.45
2022-08-05T07:13:11.072Z,65.35
2022-08-05T07:14:20.143Z,65.65
2022-08-05T07:15:11.995Z,65.07
2022-08-05T07:16:12.173Z,65.04
2022-08-05T07:17:58.679Z,64.82
2022-08-05T07:18:14.633Z,65.20
2022-08-05T07:19:16.105Z,64.65
2022-08-05T07:20:32.562Z,66.21
2022-08-05T07:21:12.899Z,65.04
2022-08-05T07:22:10.870Z,65.68
2022-08-05T07:23:25.924Z,65.30
2022-08-05T07:24:11.832Z,66.46
2022-08-05T07:25:55.682Z,64.96
2022-08-05T07:26:13.372Z,66.18
2022-08-05T07:27:10.811Z,65.65
2022-08-05T07:28:11.982Z,65.81
2022-08-05T07:29:12.776Z,65.28
2022-08-05T07:30:22.849Z,65.53
2022-08-05T07:31:11.715Z,64.64
2022-08-05T07:32:10.700Z,64.93
2022-08-05T07:33:16.443Z,64.45
2022-08-05T07:34:11.677Z,62.86
2022-08-05T07:36:04.400Z,64.09
2022-08-05T07:36:20.186Z,65.27
2022-08-05T07:37:11.867Z,65.02
2022-08-05T07:38:12.302Z,64.48
2022-08-05T07:39:24.842Z,62.88
2022-08-05T07:40:31.483Z,64.76
2022-08-05T07:42:08.122Z,63.43
2022-08-05T07:42:14.935Z,63.70
2022-08-05T07:43:19.989Z,66.58
2022-08-05T07:44:18.594Z,63.74
2022-08-05T07:45:11.548Z,63.80
2022-08-05T07:46:18.209Z,62.45
2022-08-05T07:47:11.502Z,63.89
2022-08-05T07:48:10.488Z,63.34
2022-08-05T07:49:10.444Z,62.14
2022-08-05T07:50:10.457Z,62.77
2022-08-05T07:51:23.520Z,64.59
2022-08-05T07:52:11.403Z,65.42
2022-08-05T07:53:10.416Z,63.86
2022-08-05T07:54:11.440Z,64.55
2022-08-05T07:55:44.405Z,64.39
2022-08-05T07:56:39.035Z,63.14
2022-08-05T07:57:41.711Z,64.74
2022-08-05T07:58:11.434Z,64.72
2022-08-05T07:59:11.286Z,64.03
2022-08-05T08:00:11.352Z,64.72
2022-08-05T08:01:12.087Z,63.12
2022-08-05T08:02:15.237Z,65.13
2022-08-05T08:03:15.046Z,63.73
2022-08-05T08:04:10.191Z,61.83
2022-08-05T08:05:11.405Z,62.46
2022-08-05T08:06:10.229Z,64.59
2022-08-05T08:07:10.164Z,63.19
2022-08-05T08:08:12.181Z,62.70
2022-08-05T08:09:10.140Z,62.61
2022-08-05T08:10:10.126Z,63.29
2022-08-05T08:11:10.084Z,60.45
2022-08-05T08:12:27.272Z,61.68
2022-08-05T08:13:12.165Z,61.03
2022-08-05T08:14:10.049Z,62.97
2022-08-05T08:15:15.331Z,64.11
2022-08-05T08:16:35.617Z,64.92
2022-08-05T08:17:11.005Z,65.79
2022-08-05T08:18:14.254Z,64.47
2022-08-05T08:19:37.924Z,65.29
2022-08-05T08:20:43.276Z,64.69
2022-08-05T08:21:16.009Z,63.38
2022-08-05T08:22:10.985Z,63.89
2022-08-05T08:24:00.120Z,63.64
2022-08-05T08:24:14.078Z,62.48
2022-08-05T08:25:16.323Z,64.19
2022-08-05T08:26:10.872Z,63.61
2022-08-05T08:27:09.871Z,64.53
2022-08-05T08:28:11.452Z,63.56
2022-08-05T08:29:45.130Z,63.12
2022-08-05T08:30:28.589Z,65.05
2022-08-05T08:31:15.090Z,63.27
2022-08-05T08:32:10.982Z,64.32
2022-08-05T08:33:13.939Z,62.69
2022-08-05T08:34:09.756Z,61.25
2022-08-05T08:35:13.716Z,62.69
2022-08-05T08:37:11.709Z,61.91
2022-08-05T08:38:11.835Z,62.57
2022-08-05T08:39:15.360Z,61.42
2022-08-05T08:40:10.654Z,61.02
2022-08-05T08:41:09.685Z,62.32
2022-08-05T08:42:33.964Z,62.57
2022-08-05T08:44:57.902Z,63.93
2022-08-05T08:45:18.645Z,63.07
2022-08-05T08:45:24.265Z,62.73
2022-08-05T08:46:15.624Z,62.06
2022-08-05T08:47:22.249Z,64.00
2022-08-05T08:48:22.568Z,61.40
2022-08-05T08:50:22.203Z,61.96
2022-08-05T08:50:30.935Z,62.30
2022-08-05T08:51:54.514Z,63.60
2022-08-05T08:52:23.359Z,64.38
2022-08-05T08:53:12.352Z,64.33
2022-08-05T08:54:09.490Z,63.14
2022-08-05T08:55:13.509Z,62.74
2022-08-05T08:56:10.409Z,62.99
2022-08-05T08:57:11.420Z,62.55
2022-08-05T08:58:09.411Z,61.48
2022-08-05T08:59:19.409Z,61.25
2022-08-05T09:00:11.364Z,62.82
2022-08-05T09:01:11.023Z,61.58
2022-08-05T09:02:10.338Z,64.30
2022-08-05T09:03:09.381Z,64.95
2022-08-05T09:04:10.769Z,65.93
2022-08-05T09:05:16.556Z,63.82
2022-08-05T09:06:11.541Z,62.64
2022-08-05T09:07:10.700Z,63.44
2022-08-05T09:08:11.309Z,63.45
2022-08-05T09:09:09.266Z,63.48
2022-08-05T09:10:09.239Z,65.04
2022-08-05T09:11:13.624Z,65.44
2022-08-05T09:12:20.798Z,66.88
2022-08-05T09:13:11.180Z,64.79
2022-08-05T09:14:57.859Z,63.37
2022-08-05T09:15:10.157Z,65.00
2022-08-05T09:16:09.190Z,64.18
2022-08-05T09:17:41.392Z,64.27
2022-08-05T09:18:10.165Z,64.38
2022-08-05T09:19:09.086Z,65.78
2022-08-05T09:20:09.077Z,64.38
2022-08-05T09:21:11.767Z,65.96
2022-08-05T09:22:23.144Z,67.16
2022-08-05T09:23:10.050Z,66.93
2022-08-05T09:24:10.135Z,65.88
2022-08-05T09:25:23.702Z,64.96
2022-08-05T09:26:09.997Z,67.25
2022-08-05T09:27:08.951Z,65.20
2022-08-05T09:28:08.957Z,63.71
2022-08-05T09:29:09.102Z,66.00
2022-08-05T09:30:08.936Z,66.43
2022-08-05T09:31:43.562Z,65.36
2022-08-05T09:32:41.004Z,65.18
2022-08-05T09:33:09.904Z,63.49
2022-08-05T09:34:10.386Z,65.51
2022-08-05T09:35:08.830Z,65.10
2022-08-05T09:36:11.771Z,65.01
2022-08-05T09:37:15.266Z,64.69
2022-08-05T09:38:17.089Z,63.19
2022-08-05T09:39:16.591Z,64.03
2022-08-05T09:40:09.806Z,64.33
2022-08-05T09:41:08.765Z,63.78
2022-08-05T09:42:08.717Z,64.75
2022-08-05T09:43:08.762Z,65.65
2022-08-05T09:44:08.703Z,64.82
2022-08-05T09:46:02.693Z,63.59
2022-08-05T09:46:09.662Z,65.43
2022-08-05T09:47:12.436Z,63.99
2022-08-05T09:48:09.703Z,65.07
2022-08-05T09:49:19.380Z,64.22
2022-08-05T09:50:10.607Z,63.61
2022-08-05T09:51:15.304Z,64.20
2022-08-05T09:52:09.581Z,64.69
2022-08-05T09:53:08.737Z,65.84
2022-08-05T09:54:09.337Z,63.20
2022-08-05T09:55:56.675Z,64.28
2022-08-05T09:56:13.424Z,62.30
2022-08-05T09:57:23.375Z,64.07
2022-08-05T09:58:09.518Z,63.45
2022-08-05T09:59:08.472Z,62.94
2022-08-05T10:00:08.467Z,63.37
2022-08-05T10:01:15.151Z,63.28
2022-08-05T10:02:09.452Z,64.07
2022-08-05T10:03:08.408Z,62.33
2022-08-05T10:04:10.446Z,63.98
2022-08-05T10:05:08.394Z,62.60
2022-08-05T10:06:15.609Z,60.68
2022-08-05T10:07:20.332Z,60.00
2022-08-05T10:08:10.709Z,60.40
2022-08-05T10:09:09.333Z,61.60
2022-08-05T10:10:15.178Z,61.30
2022-08-05T10:11:09.296Z,61.58
2022-08-05T10:12:30.338Z,61.97
2022-08-05T10:13:09.832Z,62.13
2022-08-05T10:14:08.248Z,61.80
2022-08-05T10:15:08.249Z,62.81
2022-08-05T10:16:08.207Z,60.61
2022-08-05T10:17:08.168Z,61.35
2022-08-05T10:18:09.168Z,61.69
2022-08-05T10:19:09.119Z,61.09
2022-08-05T10:20:11.003Z,60.10
2022-08-05T10:21:11.775Z,62.43
2022-08-05T10:22:09.175Z,61.47
2022-08-05T10:23:33.890Z,61.27
2022-08-05T10:24:10.723Z,60.64
2022-08-05T10:25:09.084Z,59.46
2022-08-05T10:26:08.102Z,60.53
2022-08-05T10:27:09.157Z,61.23
2022-08-05T10:28:13.381Z,60.04
2022-08-05T10:29:09.053Z,62.13
2022-08-05T10:32:48.183Z,60.75
2022-08-05T10:32:54.723Z,60.73
2022-08-05T10:33:02.199Z,61.81
2022-08-05T10:33:14.770Z,62.42
2022-08-05T10:34:09.005Z,60.97
2022-08-05T10:35:07.926Z,59.39
2022-08-05T10:36:07.899Z,60.33
2022-08-05T10:37:07.916Z,61.24
2022-08-05T10:38:08.255Z,61.44
2022-08-05T10:39:11.517Z,58.79
2022-08-05T10:40:17.867Z,58.93
2022-08-05T10:41:08.915Z,61.84
2022-08-05T10:42:07.806Z,62.14
2022-08-05T10:43:07.837Z,61.90
2022-08-05T10:44:07.847Z,62.16
2022-08-05T10:45:09.793Z,61.80
2022-08-05T10:46:08.783Z,60.37
2022-08-05T10:47:10.146Z,62.16
2022-08-05T10:48:30.990Z,62.32
2022-08-05T10:49:10.531Z,61.19
2022-08-05T10:50:20.687Z,61.57
2022-08-05T10:51:21.845Z,59.94
2022-08-05T10:52:10.580Z,61.56
2022-08-05T10:53:07.682Z,58.72
2022-08-05T10:54:28.126Z,61.50
2022-08-05T10:55:08.636Z,59.61
2022-08-05T10:56:21.301Z,59.40
2022-08-05T10:57:08.605Z,59.66
2022-08-05T10:58:07.647Z,59.37
2022-08-05T10:59:12.544Z,61.52
2022-08-05T11:00:13.276Z,61.55
2022-08-05T11:01:08.563Z,60.98
2022-08-05T11:02:07.657Z,62.18
2022-08-05T11:03:24.776Z,60.85
2022-08-05T11:04:08.542Z,60.90
2022-08-05T11:05:07.500Z,62.12
2022-08-05T11:06:08.559Z,61.46
2022-08-05T11:07:08.477Z,61.66
2022-08-05T11:08:33.846Z,63.65
2022-08-05T11:09:09.464Z,60.96
2022-08-05T11:10:09.991Z,62.25
2022-08-05T11:11:14.606Z,63.31
2022-08-05T11:12:09.512Z,63.26
2022-08-05T11:13:07.563Z,63.04
2022-08-05T11:14:07.392Z,63.77
2022-08-05T11:15:19.262Z,61.54
2022-08-05T11:16:08.363Z,63.13
2022-08-05T11:17:57.583Z,62.94
2022-08-05T11:18:09.706Z,63.08
2022-08-05T11:20:09.878Z,63.79
2022-08-05T11:20:10.893Z,64.17
2022-08-05T11:21:11.794Z,62.78
2022-08-05T11:22:07.247Z,63.97
2022-08-05T11:23:10.389Z,62.05
2022-08-05T11:24:30.609Z,65.52
2022-08-05T11:26:03.017Z,63.76
2022-08-05T11:26:08.790Z,66.66
2022-08-05T11:27:07.166Z,63.81
2022-08-05T11:28:07.159Z,63.48
2022-08-05T11:29:13.947Z,62.53
2022-08-05T11:30:09.157Z,64.60
2022-08-05T11:31:07.120Z,62.94
2022-08-05T11:32:07.076Z,64.39
2022-08-05T11:33:07.071Z,64.03
2022-08-05T11:34:08.282Z,64.05
2022-08-05T11:35:07.049Z,63.63
2022-08-05T11:36:08.661Z,62.95
2022-08-05T11:38:28.420Z,62.62
2022-08-05T11:38:30.566Z,63.57
2022-08-05T11:39:08.062Z,63.66
2022-08-05T11:40:07.003Z,64.00
2022-08-05T11:41:35.146Z,62.13
2022-08-05T11:42:07.914Z,61.00
2022-08-05T11:43:06.950Z,62.80
2022-08-05T11:44:08.243Z,64.25
2022-08-05T11:45:23.176Z,63.12
2022-08-05T11:46:23.396Z,63.03
2022-08-05T11:47:14.230Z,64.47
2022-08-05T11:48:07.891Z,63.25
2022-08-05T11:49:08.039Z,64.85
2022-08-05T11:50:06.790Z,63.12
2022-08-05T11:51:06.779Z,64.89
2022-08-05T11:52:11.412Z,62.05
2022-08-05T11:53:10.027Z,65.65
2022-08-05T11:54:06.782Z,64.54
2022-08-05T11:55:07.493Z,64.22
2022-08-05T11:56:06.734Z,64.66
2022-08-05T11:57:08.778Z,64.65
2022-08-05T11:58:09.112Z,63.01
2022-08-05T11:59:13.635Z,62.86
2022-08-05T12:00:07.641Z,64.66
2022-08-05T12:01:08.398Z,65.84
2022-08-05T12:02:06.628Z,63.16
2022-08-05T12:03:07.624Z,65.26
2022-08-05T12:04:06.631Z,63.11
2022-08-05T12:05:18.058Z,65.84
2022-08-05T12:06:10.044Z,65.01
2022-08-05T12:07:06.546Z,63.82
2022-08-05T12:08:10.959Z,63.98
2022-08-05T12:09:06.539Z,65.05
2022-08-05T12:10:09.578Z,64.45
2022-08-05T12:11:08.530Z,64.37
2022-08-05T12:12:06.447Z,64.36
2022-08-05T12:13:16.310Z,63.90
2022-08-05T12:14:07.546Z,64.30
2022-08-05T12:15:06.405Z,63.42
2022-08-05T12:16:14.407Z,64.54
2022-08-05T12:18:00.542Z,65.09
2022-08-05T12:18:10.481Z,65.18
2022-08-05T12:19:08.241Z,63.10
2022-08-05T12:20:25.399Z,64.70
2022-08-05T12:21:07.306Z,65.06
2022-08-05T12:22:09.602Z,64.47
2022-08-05T12:23:06.245Z,65.32
2022-08-05T12:24:07.220Z,65.17
2022-08-05T12:25:06.261Z,65.24
2022-08-05T12:26:06.197Z,65.67
2022-08-05T12:27:09.647Z,64.22
2022-08-05T12:28:07.154Z,64.98
2022-08-05T12:29:09.508Z,62.52
2022-08-05T12:30:06.151Z,65.20
2022-08-05T12:31:06.161Z,64.27
2022-08-05T12:32:07.542Z,65.14
2022-08-05T12:33:07.269Z,65.69
2022-08-05T12:34:07.106Z,65.14
2022-08-05T12:35:06.091Z,65.70
2022-08-05T12:36:07.977Z,65.84
2022-08-05T12:37:06.010Z,64.19
2022-08-05T12:38:06.000Z,64.05
2022-08-05T12:39:07.039Z,64.61
2022-08-05T12:40:10.850Z,65.20
2022-08-05T12:41:12.293Z,64.21
2022-08-05T12:42:08.363Z,65.81
2022-08-05T12:43:05.903Z,63.53
2022-08-05T12:44:05.946Z,63.69
2022-08-05T12:45:08.715Z,64.84
2022-08-05T12:46:05.864Z,64.00
2022-08-05T12:47:05.859Z,63.82
2022-08-05T12:48:17.624Z,65.02
2022-08-05T12:49:13.853Z,63.84
2022-08-05T12:50:07.332Z,63.92
2022-08-05T12:51:06.771Z,64.77
2022-08-05T12:52:12.422Z,65.16
2022-08-05T12:53:06.765Z,63.91